Time;durP1;ratioP1;P1;durP2;ratioP2;P2;SDS_P1;SDS_P2;PMS_P1;PMS_P2;Temp;Humidity;BMP_temperature;BMP_pressure;BME280_temperature;BME280_humidity;BME280_pressure;Samples;Min_cycle;Max_cycle;Signal;HPM_P1;HPM_P2
2023/10/31 00:01:55;;;;;;;1.45;0.50;;;11.50;99.90;;;;;;5080381;28;20050;-68
2023/10/31 00:04:21;;;;;;;0.45;0.45;;;11.40;99.90;;;;;;5091254;28;20081;-67
2023/10/31 00:06:46;;;;;;;8.07;1.73;;;11.50;99.90;;;;;;5080290;28;20032;-68
2023/10/31 00:09:12;;;;;;;0.20;0.20;;;11.40;99.90;;;;;;5092345;28;20028;-68
2023/10/31 00:11:38;;;;;;;0.77;0.77;;;11.40;99.90;;;;;;5081362;28;20028;-67
2023/10/31 00:14:03;;;;;;;0.50;0.50;;;11.40;99.90;;;;;;5092220;28;20028;-68
2023/10/31 00:16:29;;;;;;;1.17;1.05;;;11.40;99.90;;;;;;5082131;28;20085;-68
2023/10/31 00:18:55;;;;;;;2.47;1.48;;;11.40;99.90;;;;;;5075884;28;20037;-68
2023/10/31 00:21:20;;;;;;;8.98;1.20;;;11.30;99.90;;;;;;5075717;28;20024;-69
2023/10/31 00:23:48;;;;;;;0.95;0.77;;;11.40;99.90;;;;;;5075802;28;20025;-68
2023/10/31 00:26:14;;;;;;;0.52;0.43;;;11.30;99.90;;;;;;5075282;28;20465;-68
2023/10/31 00:28:39;;;;;;;7.38;1.10;;;11.40;99.90;;;;;;5075287;28;20032;-68
2023/10/31 00:31:06;;;;;;;4.28;1.08;;;11.40;99.90;;;;;;5075822;28;20354;-68
2023/10/31 00:33:32;;;;;;;0.65;0.43;;;11.40;99.90;;;;;;5075419;28;20115;-68
2023/10/31 00:35:58;;;;;;;7.03;0.82;;;11.30;99.90;;;;;;5075120;28;20116;-68
2023/10/31 00:38:23;;;;;;;0.85;0.82;;;11.30;99.90;;;;;;5075502;28;20036;-68
2023/10/31 00:40:49;;;;;;;1.95;1.10;;;11.30;99.90;;;;;;5075213;28;20032;-68
2023/10/31 00:43:14;;;;;;;0.40;0.40;;;11.20;99.90;;;;;;5075971;28;20031;-68
2023/10/31 00:45:40;;;;;;;0.52;0.52;;;11.20;99.90;;;;;;5075015;28;20036;-68
2023/10/31 00:48:05;;;;;;;0.20;0.20;;;11.20;99.90;;;;;;5075039;28;20024;-68
2023/10/31 00:50:31;;;;;;;0.85;0.85;;;11.20;99.90;;;;;;5074720;28;20074;-68
2023/10/31 00:52:56;;;;;;;0.50;0.50;;;11.30;99.90;;;;;;5075128;28;20021;-67
2023/10/31 00:55:22;;;;;;;0.25;0.25;;;11.30;99.90;;;;;;5075036;28;20107;-67
2023/10/31 00:57:47;;;;;;;0.50;0.50;;;11.30;99.90;;;;;;5075349;28;20035;-67
2023/10/31 01:00:13;;;;;;;3.30;1.05;;;11.30;99.90;;;;;;5074686;28;20467;-67
2023/10/31 01:02:39;;;;;;;2.00;0.93;;;11.30;99.90;;;;;;5075469;28;20495;-67
2023/10/31 01:05:04;;;;;;;0.60;0.60;;;11.30;99.90;;;;;;5074905;28;20043;-67
2023/10/31 01:07:30;;;;;;;0.75;0.75;;;11.30;99.90;;;;;;5074910;28;20346;-67
2023/10/31 01:09:55;;;;;;;2.33;0.95;;;11.30;99.90;;;;;;5074856;28;20052;-67
2023/10/31 01:12:21;;;;;;;0.50;0.50;;;11.30;99.90;;;;;;5074528;28;20067;-67
2023/10/31 01:14:47;;;;;;;1.77;0.95;;;11.30;99.90;;;;;;5074582;28;20358;-68
2023/10/31 01:17:12;;;;;;;2.10;0.93;;;11.20;99.90;;;;;;5074803;28;20020;-67
2023/10/31 01:19:38;;;;;;;0.30;0.30;;;11.20;99.90;;;;;;5074211;28;20078;-68
2023/10/31 01:22:03;;;;;;;4.68;1.38;;;11.30;99.90;;;;;;5074478;28;20028;-68
2023/10/31 01:24:29;;;;;;;0.98;0.73;;;11.30;99.90;;;;;;5073982;28;20086;-68
2023/10/31 01:26:55;;;;;;;0.57;0.57;;;11.20;99.90;;;;;;5074259;28;20086;-68
2023/10/31 01:29:20;;;;;;;1.75;1.23;;;11.30;99.90;;;;;;5074789;28;20032;-68
2023/10/31 01:31:46;;;;;;;0.28;0.28;;;11.30;99.90;;;;;;5074343;28;20385;-69
2023/10/31 01:34:11;;;;;;;0.43;0.43;;;11.30;99.90;;;;;;5074064;28;20052;-68
2023/10/31 01:36:37;;;;;;;0.50;0.50;;;11.30;99.90;;;;;;5073716;28;20029;-67
2023/10/31 01:39:02;;;;;;;3.92;0.60;;;11.30;99.90;;;;;;5074271;28;20127;-68
2023/10/31 01:41:28;;;;;;;1.08;0.73;;;11.30;99.90;;;;;;5074531;28;20025;-67
2023/10/31 01:43:54;;;;;;;0.98;0.55;;;11.30;99.90;;;;;;5079107;28;20060;-68
2023/10/31 01:46:19;;;;;;;0.55;0.55;;;11.40;99.90;;;;;;5088138;28;20165;-68
2023/10/31 01:48:45;;;;;;;0.28;0.28;;;11.30;99.90;;;;;;5080206;28;20119;-68
2023/10/31 01:51:11;;;;;;;0.43;0.43;;;11.30;99.90;;;;;;5073694;28;20503;-68
2023/10/31 01:53:37;;;;;;;0.20;0.20;;;11.30;99.90;;;;;;5072489;28;20070;-68
2023/10/31 01:56:04;;;;;;;0.30;0.30;;;11.30;99.90;;;;;;5074049;28;20034;-67
2023/10/31 01:58:32;;;;;;;0.20;0.20;;;11.30;99.90;;;;;;5073967;28;20063;-68
2023/10/31 02:01:00;;;;;;;0.70;0.70;;;11.20;99.90;;;;;;5073600;28;20068;-68
2023/10/31 02:03:26;;;;;;;0.50;0.50;;;11.20;99.90;;;;;;5073389;28;20470;-68
2023/10/31 02:05:54;;;;;;;0.20;0.20;;;11.20;99.90;;;;;;5073871;28;20036;-68
2023/10/31 02:08:19;;;;;;;0.20;0.20;;;11.20;99.90;;;;;;5073504;28;20029;-67
2023/10/31 02:10:45;;;;;;;0.20;0.20;;;11.10;99.90;;;;;;5073315;28;20075;-67
2023/10/31 02:13:20;;;;;;;0.88;0.40;;;11.10;99.90;;;;;;5075575;28;20503;-68
2023/10/31 02:15:45;;;;;;;0.20;0.20;;;11.10;99.90;;;;;;5084962;28;20039;-68
2023/10/31 02:18:11;;;;;;;0.30;0.30;;;11.10;99.90;;;;;;5093656;28;20107;-67
2023/10/31 02:20:37;;;;;;;0.50;0.50;;;11.10;99.90;;;;;;5083538;28;20446;-67
2023/10/31 02:23:03;;;;;;;0.30;0.30;;;11.10;99.90;;;;;;5073640;28;20070;-67
2023/10/31 02:25:29;;;;;;;0.30;0.30;;;11.10;99.90;;;;;;5073336;28;20040;-67
2023/10/31 02:27:55;;;;;;;0.30;0.30;;;11.10;99.90;;;;;;5073459;28;20559;-68
2023/10/31 02:30:20;;;;;;;0.20;0.20;;;11.10;99.90;;;;;;5072787;28;20028;-68
2023/10/31 02:32:46;;;;;;;3.38;1.33;;;11.10;99.90;;;;;;5073015;28;20456;-68
2023/10/31 02:35:12;;;;;;;1.35;0.65;;;11.10;99.90;;;;;;5073266;28;20067;-67
2023/10/31 02:37:37;;;;;;;0.20;0.20;;;11.10;99.90;;;;;;5073065;28;20021;-68
2023/10/31 02:40:03;;;;;;;0.35;0.30;;;11.10;99.90;;;;;;5073020;28;20043;-68
2023/10/31 02:42:29;;;;;;;0.40;0.40;;;11.10;99.90;;;;;;5072805;28;20445;-68
2023/10/31 02:44:55;;;;;;;0.50;0.50;;;11.10;99.90;;;;;;5073181;28;20035;-68
2023/10/31 02:47:20;;;;;;;0.68;0.60;;;11.10;99.90;;;;;;5073152;28;20033;-68
2023/10/31 02:49:46;;;;;;;0.30;0.30;;;11.10;99.90;;;;;;5073125;28;20070;-67
2023/10/31 02:52:11;;;;;;;0.70;0.63;;;11.10;99.90;;;;;;5073049;28;20021;-68
2023/10/31 02:54:37;;;;;;;0.47;0.47;;;11.10;99.90;;;;;;5072370;28;20041;-68
2023/10/31 02:57:03;;;;;;;0.75;0.55;;;11.10;99.90;;;;;;5073230;28;20419;-68
2023/10/31 02:59:28;;;;;;;0.25;0.25;;;11.10;99.90;;;;;;5073005;28;20036;-68
2023/10/31 03:01:56;;;;;;;0.63;0.50;;;11.10;99.90;;;;;;5072788;28;20021;-68
2023/10/31 03:04:22;;;;;;;0.43;0.43;;;11.00;99.90;;;;;;5073299;28;20029;-68
2023/10/31 03:06:48;;;;;;;0.20;0.20;;;11.00;99.90;;;;;;5072711;28;20507;-68
2023/10/31 03:09:14;;;;;;;2.00;0.50;;;11.10;99.90;;;;;;5072853;28;20025;-68
2023/10/31 03:11:40;;;;;;;0.32;0.32;;;11.10;99.90;;;;;;5073023;28;20032;-68
2023/10/31 03:14:05;;;;;;;2.65;0.30;;;11.10;99.90;;;;;;5077930;28;20029;-68
2023/10/31 03:16:31;;;;;;;0.43;0.43;;;11.10;99.90;;;;;;5072530;28;20054;-68
2023/10/31 03:18:56;;;;;;;0.40;0.40;;;11.20;99.90;;;;;;5072500;28;20377;-68
2023/10/31 03:21:22;;;;;;;0.30;0.30;;;11.20;99.90;;;;;;5071752;28;20476;-68
2023/10/31 03:23:49;;;;;;;3.42;0.52;;;11.20;99.90;;;;;;5073088;28;20469;-68
2023/10/31 03:26:16;;;;;;;0.30;0.30;;;11.20;99.90;;;;;;5072651;28;20035;-68
2023/10/31 03:28:43;;;;;;;0.88;0.80;;;11.30;99.90;;;;;;5072653;28;20042;-68
2023/10/31 03:31:09;;;;;;;0.20;0.20;;;11.30;99.90;;;;;;5072614;28;20031;-68
2023/10/31 03:33:34;;;;;;;0.60;0.45;;;11.30;99.90;;;;;;5072783;28;20033;-68
2023/10/31 03:36:00;;;;;;;0.28;0.28;;;11.30;99.90;;;;;;5072777;28;20346;-68
2023/10/31 03:38:25;;;;;;;0.40;0.40;;;11.40;99.90;;;;;;5072681;28;20050;-68
2023/10/31 03:40:51;;;;;;;0.20;0.20;;;11.40;99.90;;;;;;5072398;28;20040;-68
2023/10/31 03:43:17;;;;;;;0.20;0.20;;;11.40;99.90;;;;;;5072506;28;20082;-68
2023/10/31 03:45:42;;;;;;;0.20;0.20;;;11.40;99.90;;;;;;5072232;28;20059;-68
2023/10/31 03:48:08;;;;;;;0.30;0.30;;;11.40;99.90;;;;;;5072657;28;20567;-68
2023/10/31 03:50:33;;;;;;;2.17;0.90;;;11.40;99.90;;;;;;5074345;28;20032;-67
2023/10/31 03:52:59;;;;;;;0.30;0.30;;;11.30;99.90;;;;;;5075817;28;20125;-68
2023/10/31 03:55:25;;;;;;;0.30;0.30;;;11.30;99.90;;;;;;5075264;28;20379;-68
2023/10/31 03:57:50;;;;;;;0.20;0.20;;;11.20;99.90;;;;;;5076355;28;20017;-68
2023/10/31 04:00:16;;;;;;;0.30;0.30;;;11.20;99.90;;;;;;5075717;28;20103;-68
2023/10/31 04:02:42;;;;;;;0.30;0.30;;;11.20;99.90;;;;;;5076100;28;20028;-68
2023/10/31 04:05:07;;;;;;;0.63;0.63;;;11.20;99.90;;;;;;5075715;28;20119;-68
2023/10/31 04:07:33;;;;;;;0.35;0.32;;;11.20;99.90;;;;;;5076070;28;20048;-68
2023/10/31 04:09:59;;;;;;;0.20;0.20;;;11.20;99.90;;;;;;5076237;28;20029;-68
2023/10/31 04:12:24;;;;;;;0.35;0.35;;;11.20;99.90;;;;;;5076055;28;20028;-68
2023/10/31 04:14:50;;;;;;;0.50;0.50;;;11.20;99.90;;;;;;5075729;28;20034;-68
2023/10/31 04:17:16;;;;;;;0.20;0.20;;;11.20;99.90;;;;;;5075339;28;20025;-68
2023/10/31 04:19:41;;;;;;;0.30;0.30;;;11.20;99.90;;;;;;5075977;28;20522;-68
2023/10/31 04:22:07;;;;;;;0.20;0.20;;;11.20;99.90;;;;;;5076200;28;20064;-68
2023/10/31 04:24:32;;;;;;;5.15;0.82;;;11.20;99.90;;;;;;5075634;28;20031;-68
2023/10/31 04:26:58;;;;;;;0.20;0.20;;;11.20;99.90;;;;;;5075714;28;20029;-68
2023/10/31 04:29:23;;;;;;;0.50;0.40;;;11.20;99.90;;;;;;5074922;28;20032;-68
2023/10/31 04:31:49;;;;;;;0.32;0.30;;;11.30;99.90;;;;;;5075714;28;20024;-68
2023/10/31 04:34:14;;;;;;;3.63;1.65;;;11.30;99.90;;;;;;5075621;28;20147;-68
2023/10/31 04:36:40;;;;;;;0.28;0.28;;;11.30;99.90;;;;;;5075430;28;20038;-68
2023/10/31 04:39:06;;;;;;;0.57;0.38;;;11.30;99.90;;;;;;5074894;28;20033;-68
2023/10/31 04:41:31;;;;;;;0.57;0.45;;;11.30;99.90;;;;;;5075045;28;20495;-68
2023/10/31 04:43:57;;;;;;;0.35;0.35;;;11.30;99.90;;;;;;5080735;28;20094;-68
2023/10/31 04:46:24;;;;;;;0.68;0.68;;;11.40;99.90;;;;;;5090145;28;20531;-68
2023/10/31 04:48:49;;;;;;;0.75;0.52;;;11.40;99.90;;;;;;5095694;28;20060;-68
2023/10/31 04:51:15;;;;;;;0.20;0.20;;;11.40;99.90;;;;;;5093356;28;20048;-68
2023/10/31 04:53:40;;;;;;;0.20;0.20;;;11.40;99.90;;;;;;5075432;28;20087;-68
2023/10/31 04:56:13;;;;;;;0.20;0.20;;;11.40;99.90;;;;;;5075187;28;20092;-69
2023/10/31 04:58:38;;;;;;;0.38;0.38;;;11.40;99.90;;;;;;5073976;28;20530;-68
2023/10/31 05:01:08;;;;;;;0.35;0.35;;;11.40;99.90;;;;;;5074709;28;20021;-68
2023/10/31 05:03:34;;;;;;;0.40;0.40;;;11.50;99.90;;;;;;5074536;28;20423;-68
2023/10/31 05:05:59;;;;;;;0.57;0.47;;;11.50;99.90;;;;;;5075244;28;20024;-68
2023/10/31 05:08:25;;;;;;;1.73;0.30;;;11.60;99.90;;;;;;5075077;28;20021;-69
2023/10/31 05:10:50;;;;;;;0.68;0.57;;;11.60;99.90;;;;;;5074787;28;20028;-69
2023/10/31 05:13:16;;;;;;;0.60;0.60;;;11.60;99.90;;;;;;5074530;28;20385;-68
2023/10/31 05:15:42;;;;;;;3.67;0.57;;;11.60;99.90;;;;;;5074687;28;20461;-68
2023/10/31 05:18:07;;;;;;;0.38;0.38;;;11.60;99.90;;;;;;5075018;28;20029;-67
2023/10/31 05:20:33;;;;;;;1.88;0.60;;;11.60;99.90;;;;;;5074686;28;20503;-67
2023/10/31 05:22:58;;;;;;;0.22;0.22;;;11.60;99.90;;;;;;5074978;28;20486;-66
2023/10/31 05:25:24;;;;;;;0.20;0.20;;;11.60;99.90;;;;;;5074700;28;20035;-67
2023/10/31 05:27:49;;;;;;;0.30;0.30;;;11.60;99.90;;;;;;5074174;28;20059;-67
2023/10/31 05:30:15;;;;;;;1.70;1.10;;;11.60;99.90;;;;;;5074736;28;20428;-67
2023/10/31 05:32:40;;;;;;;2.65;0.85;;;11.50;99.90;;;;;;5074767;28;20457;-67
2023/10/31 05:35:06;;;;;;;0.30;0.30;;;11.50;99.90;;;;;;5074544;28;20021;-66
2023/10/31 05:37:32;;;;;;;0.20;0.20;;;11.50;99.90;;;;;;5074522;28;20112;-67
2023/10/31 05:39:57;;;;;;;0.40;0.40;;;11.50;99.90;;;;;;5073939;28;20040;-67
2023/10/31 05:42:24;;;;;;;0.20;0.20;;;11.50;99.90;;;;;;5073785;28;20028;-67
2023/10/31 05:44:49;;;;;;;0.20;0.20;;;11.50;99.90;;;;;;5081890;28;20405;-67
2023/10/31 05:47:15;;;;;;;0.28;0.28;;;11.50;99.90;;;;;;5094696;28;20035;-67
2023/10/31 05:49:43;;;;;;;0.50;0.50;;;11.60;99.90;;;;;;5094465;28;20433;-67
2023/10/31 05:52:08;;;;;;;0.30;0.30;;;11.60;99.90;;;;;;5085547;28;20064;-67
2023/10/31 05:54:34;;;;;;;0.30;0.30;;;11.60;99.90;;;;;;5074307;28;20060;-67
2023/10/31 05:56:59;;;;;;;0.30;0.30;;;11.60;99.90;;;;;;5073924;28;20282;-67
2023/10/31 05:59:25;;;;;;;0.57;0.57;;;11.50;99.90;;;;;;5079424;28;20121;-67
2023/10/31 06:01:50;;;;;;;0.20;0.20;;;11.50;99.90;;;;;;5088658;28;20062;-67
2023/10/31 06:04:16;;;;;;;1.27;0.55;;;11.60;99.90;;;;;;5074072;28;20024;-66
2023/10/31 06:06:42;;;;;;;0.20;0.20;;;11.60;99.90;;;;;;5074064;28;20526;-67
2023/10/31 06:09:09;;;;;;;0.50;0.50;;;11.60;99.90;;;;;;5073959;28;20116;-67
2023/10/31 06:11:35;;;;;;;0.45;0.45;;;11.70;99.90;;;;;;5073845;28;20059;-67
2023/10/31 06:14:00;;;;;;;0.30;0.30;;;11.70;99.90;;;;;;5072468;28;20075;-67
2023/10/31 06:16:26;;;;;;;0.47;0.47;;;11.70;99.90;;;;;;5073810;28;20035;-67
2023/10/31 06:18:52;;;;;;;0.20;0.20;;;11.70;99.90;;;;;;5073928;28;20024;-68
2023/10/31 06:21:17;;;;;;;0.50;0.50;;;11.70;99.90;;;;;;5073608;28;20094;-67
2023/10/31 06:23:45;;;;;;;0.85;0.60;;;11.70;99.90;;;;;;5073424;28;20423;-67
2023/10/31 06:26:10;;;;;;;0.40;0.40;;;11.80;99.90;;;;;;5073131;28;20087;-67
2023/10/31 06:28:37;;;;;;;0.28;0.28;;;11.80;99.90;;;;;;5073964;28;20461;-67
2023/10/31 06:31:03;;;;;;;1.65;0.50;;;11.80;99.90;;;;;;5078611;28;20476;-67
2023/10/31 06:33:29;;;;;;;3.20;0.60;;;11.80;99.90;;;;;;5089627;28;20382;-67
2023/10/31 06:35:54;;;;;;;0.90;0.60;;;11.80;99.90;;;;;;5093948;28;20024;-67
2023/10/31 06:38:20;;;;;;;0.35;0.35;;;11.80;99.90;;;;;;5084682;28;20078;-67
2023/10/31 06:40:45;;;;;;;0.13;0.13;;;11.90;99.90;;;;;;5073134;28;20117;-67
2023/10/31 06:43:11;;;;;;;0.32;0.28;;;11.90;99.90;;;;;;5074093;28;20472;-67
2023/10/31 06:45:37;;;;;;;2.63;0.70;;;11.90;99.90;;;;;;5073260;28;20025;-66
2023/10/31 06:48:03;;;;;;;0.95;0.63;;;11.90;99.90;;;;;;5078661;28;20025;-67
2023/10/31 06:50:28;;;;;;;0.70;0.43;;;12.00;99.90;;;;;;5076190;28;20039;-67
2023/10/31 06:52:54;;;;;;;3.20;1.95;;;12.00;99.90;;;;;;5079054;28;20024;-67
2023/10/31 06:55:20;;;;;;;2.53;1.20;;;12.10;99.90;;;;;;5077563;28;20031;-67
2023/10/31 06:57:46;;;;;;;2.05;1.17;;;12.10;99.90;;;;;;5074886;28;20162;-67
2023/10/31 07:00:12;;;;;;;2.88;1.52;;;12.20;99.90;;;;;;5073414;28;20381;-67
2023/10/31 07:02:38;;;;;;;2.33;1.52;;;12.20;99.90;;;;;;5065684;28;20044;-67
2023/10/31 07:05:04;;;;;;;2.72;0.90;;;12.20;99.90;;;;;;5063170;28;20021;-67
2023/10/31 07:07:29;;;;;;;1.15;0.82;;;12.30;99.90;;;;;;5061088;28;20028;-67
2023/10/31 07:09:55;;;;;;;1.05;0.80;;;12.20;99.90;;;;;;5063102;28;20044;-66
2023/10/31 07:12:21;;;;;;;0.70;0.70;;;12.20;99.90;;;;;;5061915;28;20075;-67
2023/10/31 07:14:47;;;;;;;0.90;0.50;;;12.20;99.90;;;;;;5070596;28;20029;-66
2023/10/31 07:17:13;;;;;;;1.25;0.98;;;12.10;99.90;;;;;;5063722;28;20082;-67
2023/10/31 07:19:38;;;;;;;2.85;1.05;;;12.10;99.90;;;;;;5062313;28;20028;-67
2023/10/31 07:22:04;;;;;;;1.10;0.93;;;12.10;99.90;;;;;;5069477;28;20114;-67
2023/10/31 07:24:29;;;;;;;0.30;0.30;;;12.10;99.90;;;;;;5079835;28;20028;-67
2023/10/31 07:26:55;;;;;;;0.45;0.20;;;12.10;99.90;;;;;;5073608;28;20119;-66
2023/10/31 07:29:20;;;;;;;0.20;0.20;;;12.10;99.90;;;;;;5069336;28;20035;-67
2023/10/31 07:31:46;;;;;;;0.70;0.70;;;12.10;99.90;;;;;;5077131;28;20375;-66
2023/10/31 07:34:12;;;;;;;0.30;0.30;;;12.10;99.90;;;;;;5068980;28;20071;-67
2023/10/31 07:36:39;;;;;;;1.02;0.95;;;12.10;99.90;;;;;;5069941;28;20053;-66
2023/10/31 07:39:05;;;;;;;0.80;0.80;;;12.10;99.90;;;;;;5067656;28;20484;-66
2023/10/31 07:41:31;;;;;;;1.45;0.68;;;12.00;99.90;;;;;;5065509;28;20025;-66
2023/10/31 07:43:56;;;;;;;0.35;0.35;;;12.10;99.90;;;;;;5076556;28;20040;-66
2023/10/31 07:46:23;;;;;;;0.70;0.70;;;12.00;99.90;;;;;;5066977;28;20017;-67
2023/10/31 07:48:48;;;;;;;1.95;0.60;;;12.00;99.90;;;;;;5070568;28;20035;-66
2023/10/31 07:51:14;;;;;;;1.15;0.98;;;12.00;99.90;;;;;;5070765;28;20396;-67
2023/10/31 07:53:41;;;;;;;5.22;1.13;;;12.10;99.90;;;;;;5073973;28;20420;-67
2023/10/31 07:56:16;;;;;;;2.88;1.67;;;12.10;99.90;;;;;;5060473;28;20036;-66
2023/10/31 07:58:42;;;;;;;2.08;1.30;;;12.10;99.90;;;;;;5066832;28;20397;-66
2023/10/31 08:01:10;;;;;;;1.02;0.80;;;12.10;99.90;;;;;;5069238;28;20463;-66
2023/10/31 08:03:37;;;;;;;0.93;0.93;;;12.10;99.90;;;;;;5064687;28;20033;-66
2023/10/31 08:06:04;;;;;;;1.88;1.30;;;12.10;99.90;;;;;;5065411;28;20021;-66
2023/10/31 08:08:29;;;;;;;0.95;0.35;;;12.10;99.90;;;;;;5066898;28;20025;-66
2023/10/31 08:10:57;;;;;;;0.70;0.50;;;12.10;99.90;;;;;;5066145;28;20048;-66
2023/10/31 08:13:22;;;;;;;0.40;0.40;;;12.10;99.90;;;;;;5065670;28;20033;-66
2023/10/31 08:15:48;;;;;;;0.90;0.82;;;12.20;99.90;;;;;;5066505;28;20369;-66
2023/10/31 08:18:13;;;;;;;0.60;0.57;;;12.30;99.90;;;;;;5064480;28;20025;-66
2023/10/31 08:20:39;;;;;;;4.95;1.40;;;12.30;99.90;;;;;;5066718;28;20127;-67
2023/10/31 08:23:05;;;;;;;0.40;0.40;;;12.40;99.90;;;;;;5065631;28;20115;-66
2023/10/31 08:25:30;;;;;;;0.45;0.45;;;12.40;99.90;;;;;;5067292;28;20365;-67
2023/10/31 08:27:56;;;;;;;0.35;0.35;;;12.50;99.90;;;;;;5066494;28;20025;-66
2023/10/31 08:30:22;;;;;;;1.08;0.80;;;12.60;99.90;;;;;;5067985;28;20029;-67
2023/10/31 08:32:47;;;;;;;1.40;1.02;;;12.80;99.90;;;;;;5065787;28;20377;-67
2023/10/31 08:35:13;;;;;;;0.65;0.65;;;13.00;99.90;;;;;;5063984;28;20029;-66
2023/10/31 08:37:39;;;;;;;0.85;0.85;;;13.20;99.90;;;;;;5066141;28;20111;-67
2023/10/31 08:40:05;;;;;;;0.68;0.68;;;13.40;99.90;;;;;;5065408;28;20580;-66
2023/10/31 08:42:31;;;;;;;1.20;1.10;;;13.60;99.90;;;;;;5063895;28;20575;-67
2023/10/31 08:44:56;;;;;;;0.60;0.52;;;13.80;99.90;;;;;;5065624;28;20108;-66
2023/10/31 08:47:22;;;;;;;1.65;0.95;;;14.00;99.90;;;;;;5065515;28;20422;-66
2023/10/31 08:49:48;;;;;;;0.30;0.30;;;14.40;99.90;;;;;;5062718;28;20385;-66
2023/10/31 08:52:14;;;;;;;0.20;0.20;;;15.00;99.90;;;;;;5066064;28;20465;-67
2023/10/31 08:54:39;;;;;;;0.50;0.50;;;15.80;99.90;;;;;;5064603;28;20072;-67
2023/10/31 08:57:05;;;;;;;0.40;0.40;;;16.60;99.90;;;;;;5065592;28;20023;-67
2023/10/31 08:59:30;;;;;;;0.75;0.75;;;17.40;99.90;;;;;;5065513;28;20037;-67
2023/10/31 09:01:56;;;;;;;0.85;0.85;;;18.30;99.90;;;;;;5063474;28;20484;-67
2023/10/31 09:04:22;;;;;;;3.13;0.50;;;19.20;99.90;;;;;;5064280;28;20087;-67
2023/10/31 09:06:47;;;;;;;0.20;0.20;;;20.10;99.90;;;;;;5064863;28;20025;-67
2023/10/31 09:09:13;;;;;;;1.65;0.55;;;20.90;99.90;;;;;;5063640;28;20029;-67
2023/10/31 09:11:39;;;;;;;0.10;0.10;;;21.60;99.90;;;;;;5065060;28;20055;-67
2023/10/31 09:14:04;;;;;;;0.30;0.30;;;22.30;99.90;;;;;;5065238;28;20077;-67
2023/10/31 09:16:30;;;;;;;0.10;0.10;;;22.90;99.90;;;;;;5065288;28;20035;-67
2023/10/31 09:18:55;;;;;;;0.10;0.10;;;23.30;99.90;;;;;;5065206;28;20029;-67
2023/10/31 09:21:21;;;;;;;2.85;0.20;;;23.20;99.90;;;;;;5064922;28;20020;-66
2023/10/31 09:23:47;;;;;;;0.03;0.03;;;23.20;99.90;;;;;;5064829;28;20025;-67
2023/10/31 09:26:13;;;;;;;0.10;0.10;;;23.40;99.90;;;;;;5062761;28;20053;-67
2023/10/31 09:28:40;;;;;;;0.10;0.10;;;23.80;99.90;;;;;;5064975;28;20447;-67
2023/10/31 09:31:05;;;;;;;0.10;0.03;;;24.10;99.90;;;;;;5064591;28;20025;-66
2023/10/31 09:33:31;;;;;;;0.98;0.35;;;23.80;99.90;;;;;;5063023;28;20091;-67
2023/10/31 09:35:57;;;;;;;0.13;0.13;;;23.30;99.90;;;;;;5065354;28;20074;-68
2023/10/31 09:38:23;;;;;;;0.10;0.10;;;22.70;99.90;;;;;;5064406;28;20074;-67
2023/10/31 09:40:50;;;;;;;1.77;0.63;;;22.30;99.90;;;;;;5064789;28;20025;-67
2023/10/31 09:43:16;;;;;;;0.22;0.22;;;22.00;99.90;;;;;;5063061;28;20029;-66
2023/10/31 09:45:42;;;;;;;1.00;0.57;;;21.80;99.90;;;;;;5064454;28;20021;-68
2023/10/31 09:48:07;;;;;;;0.38;0.32;;;21.80;99.90;;;;;;5063190;28;20024;-68
2023/10/31 09:50:34;;;;;;;0.10;0.10;;;21.00;99.90;;;;;;5064454;28;20040;-68
2023/10/31 09:53:00;;;;;;;0.10;0.10;;;20.00;99.90;;;;;;5064324;28;20037;-68
2023/10/31 09:55:26;;;;;;;0.15;0.15;;;19.10;99.90;;;;;;5063341;28;20036;-68
2023/10/31 09:57:51;;;;;;;0.30;0.30;;;18.70;99.90;;;;;;5064905;28;20029;-67
2023/10/31 10:00:18;;;;;;;1.10;0.50;;;19.20;99.90;;;;;;5062804;28;20032;-67
2023/10/31 10:02:43;;;;;;;0.73;0.73;;;20.10;99.90;;;;;;5066100;28;20040;-67
2023/10/31 10:05:09;;;;;;;0.38;0.38;;;21.20;99.90;;;;;;5063335;28;20024;-67
2023/10/31 10:07:37;;;;;;;0.20;0.20;;;22.30;99.90;;;;;;5064173;28;20035;-67
2023/10/31 10:10:03;;;;;;;1.48;1.38;;;23.30;99.90;;;;;;5064070;28;20038;-67
2023/10/31 10:12:29;;;;;;;0.20;0.20;;;24.10;99.90;;;;;;5065404;28;20024;-67
2023/10/31 10:14:56;;;;;;;0.55;0.47;;;24.70;99.90;;;;;;5065748;28;20029;-67
2023/10/31 10:17:23;;;;;;;0.22;0.22;;;25.30;99.90;;;;;;5063906;28;20111;-67
2023/10/31 10:20:13;;;;;;;0.10;0.10;;;25.80;99.90;;;;;;5063407;28;20443;-67
2023/10/31 10:22:42;;;;;;;2.08;0.22;;;26.30;99.90;;;;;;5064292;28;20021;-67
2023/10/31 10:25:16;;;;;;;2.35;1.25;;;26.50;99.60;;;;;;5063237;28;20025;-67
2023/10/31 10:27:43;;;;;;;4.47;1.38;;;26.80;99.60;;;;;;5062168;28;20029;-67
2023/10/31 10:30:09;;;;;;;4.03;1.67;;;27.00;99.30;;;;;;5062431;28;20045;-67
2023/10/31 10:32:35;;;;;;;6.30;2.83;;;27.10;99.40;;;;;;5064195;28;20032;-67
2023/10/31 10:35:00;;;;;;;7.90;3.38;;;27.30;99.00;;;;;;5063311;28;20108;-67
2023/10/31 10:37:30;;;;;;;8.95;4.45;;;27.40;99.20;;;;;;5064325;28;20024;-68
2023/10/31 10:39:56;;;;;;;3.05;0.68;;;27.50;97.70;;;;;;5061786;28;20104;-67
2023/10/31 10:42:33;;;;;;;5.63;2.42;;;27.30;97.40;;;;;;5063709;28;20038;-67
2023/10/31 10:45:03;;;;;;;9.13;3.33;;;27.20;97.60;;;;;;5063992;28;20025;-67
2023/10/31 10:47:31;;;;;;;5.05;2.25;;;27.30;97.70;;;;;;5063235;28;20108;-67
2023/10/31 10:50:00;;;;;;;7.53;2.70;;;27.30;97.30;;;;;;5063176;28;20036;-67
2023/10/31 10:52:39;;;;;;;12.13;3.38;;;27.10;97.50;;;;;;5063643;28;20469;-67
2023/10/31 10:55:12;;;;;;;2.00;1.08;;;27.00;97.90;;;;;;5064204;28;20052;-67
2023/10/31 10:57:44;;;;;;;6.65;2.95;;;26.80;96.60;;;;;;5063923;28;20028;-67
2023/10/31 11:00:12;;;;;;;;;;;26.50;97.10;;;;;;5061170;28;20075;-67
2023/10/31 11:02:43;;;;;;;5.18;2.00;;;26.30;98.00;;;;;;5061412;28;19999;-66
2023/10/31 11:05:09;;;;;;;7.82;2.47;;;26.00;97.90;;;;;;5062528;28;20520;-67
2023/10/31 11:07:36;;;;;;;6.05;2.65;;;25.60;97.70;;;;;;5061690;28;20031;-66
2023/10/31 11:10:02;;;;;;;5.30;2.33;;;25.30;98.50;;;;;;5063383;28;20029;-67
2023/10/31 11:12:32;;;;;;;3.72;1.05;;;25.00;99.30;;;;;;5062849;28;20025;-67
2023/10/31 11:15:00;;;;;;;9.23;3.63;;;25.00;99.60;;;;;;5062489;28;20032;-67
2023/10/31 11:17:29;;;;;;;5.60;1.33;;;25.10;99.90;;;;;;5063133;28;20086;-67
2023/10/31 11:19:56;;;;;;;4.57;1.40;;;25.40;99.30;;;;;;5063736;28;20029;-67
2023/10/31 11:22:21;;;;;;;4.65;2.30;;;25.70;99.60;;;;;;5061855;28;20080;-67
2023/10/31 11:24:49;;;;;;;3.67;1.35;;;26.00;98.90;;;;;;5062441;28;20421;-67
2023/10/31 11:27:16;;;;;;;2.58;1.40;;;26.30;99.20;;;;;;5062374;28;20392;-67
2023/10/31 11:29:42;;;;;;;7.00;1.20;;;26.40;96.90;;;;;;5063631;28;20041;-67
2023/10/31 11:32:11;;;;;;;3.60;1.42;;;25.90;96.50;;;;;;5062248;28;20028;-67
2023/10/31 11:34:39;;;;;;;2.85;1.05;;;25.20;98.10;;;;;;5063328;28;20396;-67
2023/10/31 11:37:27;;;;;;;2.35;1.13;;;24.50;98.10;;;;;;5063276;28;20024;-67
2023/10/31 11:40:18;;;;;;;4.43;1.00;;;23.50;98.80;;;;;;5066140;28;20037;-67
2023/10/31 11:42:56;;;;;;;6.20;1.67;;;22.70;99.90;;;;;;5066702;28;20016;-67
2023/10/31 11:45:41;;;;;;;4.93;1.38;;;21.90;99.90;;;;;;5066007;28;20131;-67
2023/10/31 11:48:08;;;;;;;4.07;1.48;;;21.20;99.90;;;;;;5062320;28;20060;-66
2023/10/31 11:50:34;;;;;;;2.00;1.00;;;20.70;99.90;;;;;;5063501;28;20043;-67
2023/10/31 11:53:13;;;;;;;7.25;1.60;;;20.20;99.90;;;;;;5060541;28;20034;-67
2023/10/31 11:55:43;;;;;;;5.78;1.75;;;19.70;99.90;;;;;;5061203;28;20025;-67
2023/10/31 11:58:16;;;;;;;2.65;1.20;;;19.40;99.90;;;;;;5064064;28;20033;-67
2023/10/31 12:00:42;;;;;;;8.68;2.92;;;19.00;99.90;;;;;;5071257;28;20024;-67
2023/10/31 12:03:08;;;;;;;6.03;1.63;;;18.70;99.90;;;;;;5071944;28;20055;-67
2023/10/31 12:05:33;;;;;;;4.55;1.10;;;18.50;99.90;;;;;;5071973;28;20453;-66
2023/10/31 12:07:59;;;;;;;4.13;1.00;;;18.30;99.90;;;;;;5072715;28;20526;-66
2023/10/31 12:10:26;;;;;;;4.20;1.02;;;18.20;99.90;;;;;;5072715;28;20048;-67
2023/10/31 12:13:01;;;;;;;4.72;0.95;;;18.00;99.90;;;;;;5076334;28;20028;-66
2023/10/31 12:15:29;;;;;;;5.05;1.30;;;17.90;99.90;;;;;;5074978;28;20066;-66
2023/10/31 12:17:59;;;;;;;4.28;1.20;;;17.80;99.90;;;;;;5057986;28;20028;-67
2023/10/31 12:20:26;;;;;;;6.85;2.30;;;17.80;99.90;;;;;;5074815;28;20476;-66
2023/10/31 12:23:05;;;;;;;3.90;1.63;;;17.60;99.90;;;;;;5074493;28;20033;-66
2023/10/31 12:25:34;;;;;;;4.63;1.58;;;17.50;99.90;;;;;;5075517;28;20032;-66
2023/10/31 12:28:00;;;;;;;5.50;1.90;;;17.50;99.90;;;;;;5075860;28;20025;-66
2023/10/31 12:30:26;;;;;;;5.90;0.80;;;17.50;99.90;;;;;;5073291;28;20384;-66
2023/10/31 12:32:56;;;;;;;4.03;1.40;;;17.60;99.90;;;;;;5075494;28;20072;-67
2023/10/31 12:35:23;;;;;;;3.28;0.77;;;17.60;99.90;;;;;;5075789;28;20461;-67
2023/10/31 12:37:49;;;;;;;1.77;1.00;;;17.70;99.90;;;;;;5075475;28;20028;-67
2023/10/31 12:40:18;;;;;;;3.45;1.10;;;17.70;99.90;;;;;;5075787;28;20032;-66
2023/10/31 12:42:45;;;;;;;3.65;0.80;;;17.70;99.90;;;;;;5075821;28;20032;-66
2023/10/31 12:45:15;;;;;;;1.08;0.73;;;17.70;99.90;;;;;;5075469;28;20035;-66